createdAt,value
2019-02-20T00:00:51.285Z,16.13
2019-02-20T00:03:48.879Z,14.70
2019-02-20T00:06:44.380Z,13.97
2019-02-20T00:09:41.068Z,13.00
2019-02-20T00:12:37.295Z,14.03
2019-02-20T00:15:32.604Z,17.25
2019-02-20T00:18:29.161Z,13.37
2019-02-20T00:21:25.802Z,14.50
2019-02-20T00:24:22.352Z,13.83
2019-02-20T00:27:18.010Z,11.60
2019-02-20T00:30:14.011Z,15.20
2019-02-20T00:33:11.857Z,16.30
2019-02-20T00:36:08.432Z,16.63
2019-02-20T00:39:04.913Z,11.30
2019-02-20T00:42:00.939Z,14.27
2019-02-20T00:45:10.567Z,13.47
2019-02-20T00:48:23.731Z,12.63
2019-02-20T00:51:31.716Z,13.87
2019-02-20T00:54:28.064Z,12.43
2019-02-20T00:57:23.521Z,17.90
2019-02-20T01:00:20.041Z,11.77
2019-02-20T01:03:17.618Z,14.90
2019-02-20T01:06:14.143Z,13.27
2019-02-20T01:09:09.659Z,12.30
2019-02-20T01:12:07.386Z,12.97
2019-02-20T01:15:03.265Z,10.90
2019-02-20T01:17:59.644Z,15.23
2019-02-20T01:20:56.201Z,16.97
2019-02-20T01:23:51.685Z,14.03
2019-02-20T01:26:48.294Z,15.10
2019-02-20T01:29:43.996Z,14.70
2019-02-20T01:32:41.247Z,14.83
2019-02-20T01:35:37.646Z,13.47
2019-02-20T01:38:35.331Z,12.75
2019-02-20T01:41:30.461Z,12.20
2019-02-20T01:44:27.007Z,11.40
2019-02-20T01:47:22.814Z,14.20
2019-02-20T01:50:19.311Z,12.30
2019-02-20T01:53:15.067Z,13.62
2019-02-20T01:56:11.393Z,14.97
2019-02-20T01:59:08.180Z,13.63
2019-02-20T02:02:05.575Z,13.43
2019-02-20T02:05:14.868Z,11.30
2019-02-20T02:08:04.494Z,13.47
2019-02-20T02:11:01.068Z,13.73
2019-02-20T02:13:56.570Z,16.03
2019-02-20T02:16:53.137Z,15.97
2019-02-20T02:19:48.643Z,12.50
2019-02-20T02:22:46.181Z,15.67
2019-02-20T02:25:42.928Z,11.25
2019-02-20T02:28:38.652Z,14.83
2019-02-20T02:31:34.991Z,12.73
2019-02-20T02:34:30.433Z,12.37
2019-02-20T02:37:28.230Z,14.83
2019-02-20T02:40:23.919Z,12.90
2019-02-20T02:43:21.458Z,13.80
2019-02-20T02:46:16.768Z,14.70
2019-02-20T02:49:13.549Z,11.60
2019-02-20T02:52:09.288Z,16.63
2019-02-20T02:55:05.567Z,12.07
2019-02-20T02:58:02.089Z,13.10
2019-02-20T03:00:57.850Z,12.67
2019-02-20T03:03:56.579Z,11.00
2019-02-20T03:06:52.056Z,12.90
2019-02-20T03:09:48.529Z,12.77
2019-02-20T03:12:44.203Z,13.93
2019-02-20T03:15:40.327Z,16.13
2019-02-20T03:18:36.745Z,14.97
2019-02-20T03:21:32.446Z,16.60
2019-02-20T03:24:30.016Z,14.40
2019-02-20T03:27:25.698Z,17.30
2019-02-20T03:30:22.189Z,14.03
2019-02-20T03:33:18.481Z,13.20
2019-02-20T03:36:16.156Z,11.20
2019-02-20T03:39:12.262Z,11.87
2019-02-20T03:42:10.132Z,14.23
2019-02-20T03:45:07.041Z,30.50
2019-02-20T03:48:02.531Z,37.27
2019-02-20T03:50:59.270Z,33.07
2019-02-20T03:53:55.610Z,37.03
2019-02-20T03:56:52.145Z,30.65
2019-02-20T03:59:47.241Z,29.67
2019-02-20T04:02:43.843Z,26.50
2019-02-20T04:05:41.158Z,26.10
2019-02-20T04:08:36.067Z,28.07
2019-02-20T04:11:38.810Z,24.87
2019-02-20T04:14:41.611Z,21.80
2019-02-20T04:17:39.150Z,27.37
2019-02-20T04:20:41.123Z,23.93
2019-02-20T04:23:41.124Z,23.03
2019-02-20T04:26:42.094Z,19.50
2019-02-20T04:29:38.235Z,20.95
2019-02-20T04:32:41.714Z,20.70
2019-02-20T04:35:41.513Z,25.60
2019-02-20T04:38:36.238Z,33.23
2019-02-20T04:41:34.060Z,31.03
2019-02-20T04:44:31.604Z,30.20
2019-02-20T04:47:28.345Z,29.03
2019-02-20T04:50:25.065Z,24.70
2019-02-20T04:53:20.576Z,20.43
2019-02-20T04:56:17.128Z,25.63
2019-02-20T04:59:15.079Z,20.47
2019-02-20T05:02:11.821Z,18.63
2019-02-20T05:05:08.622Z,20.27
2019-02-20T05:08:06.061Z,18.67
2019-02-20T05:11:01.862Z,21.57
2019-02-20T05:13:58.243Z,18.77
2019-02-20T05:16:55.621Z,23.13
2019-02-20T05:19:51.127Z,19.00
2019-02-20T05:22:47.782Z,19.20
2019-02-20T05:25:44.480Z,20.20
2019-02-20T05:28:40.747Z,18.60
2019-02-20T05:31:35.654Z,21.40
2019-02-20T05:34:32.496Z,20.10
2019-02-20T05:37:27.937Z,25.40
2019-02-20T05:40:24.613Z,21.40
2019-02-20T05:43:21.431Z,24.27
2019-02-20T05:46:20.009Z,17.73
2019-02-20T05:49:16.516Z,16.97
2019-02-20T05:52:12.271Z,20.17
2019-02-20T05:55:08.964Z,19.13
2019-02-20T05:58:04.748Z,18.03
2019-02-20T06:01:02.889Z,19.07
2019-02-20T06:04:00.443Z,18.90
2019-02-20T06:06:58.208Z,22.73
2019-02-20T06:09:54.805Z,17.33
2019-02-20T06:12:50.105Z,19.27
2019-02-20T06:15:48.585Z,15.23
2019-02-20T06:18:48.255Z,23.15
2019-02-20T06:21:55.398Z,25.23
2019-02-20T06:24:50.880Z,24.57
2019-02-20T06:27:54.866Z,25.17
2019-02-20T06:30:51.540Z,20.70
2019-02-20T06:33:46.990Z,21.02
2019-02-20T06:36:43.594Z,20.70
2019-02-20T06:39:39.375Z,18.48
2019-02-20T06:42:36.175Z,22.23
2019-02-20T06:45:44.084Z,22.93
2019-02-20T06:48:40.021Z,23.43
2019-02-20T06:51:35.613Z,21.70
2019-02-20T06:54:32.407Z,20.10
2019-02-20T06:57:29.914Z,23.03
2019-02-20T07:00:25.315Z,24.30
2019-02-20T07:03:22.059Z,21.20
2019-02-20T07:06:43.771Z,23.98
2019-02-20T07:10:09.071Z,22.82
2019-02-20T07:13:39.547Z,27.42
2019-02-20T07:17:02.325Z,20.30
2019-02-20T07:20:23.639Z,24.50
2019-02-20T07:23:59.729Z,18.20
2019-02-20T07:27:19.118Z,22.00
2019-02-20T07:30:25.574Z,22.35
2019-02-20T07:33:22.105Z,23.10
2019-02-20T07:36:18.725Z,35.77
2019-02-20T07:39:15.350Z,35.23
2019-02-20T07:42:11.953Z,32.20
2019-02-20T07:45:06.644Z,40.40
2019-02-20T07:48:04.791Z,30.70
2019-02-20T07:51:01.451Z,27.80
2019-02-20T07:53:57.075Z,32.70
2019-02-20T07:56:54.622Z,26.87
2019-02-20T07:59:50.343Z,23.10
2019-02-20T08:02:47.667Z,21.73
2019-02-20T08:05:43.212Z,21.70
2019-02-20T08:08:39.847Z,22.93
2019-02-20T08:11:35.199Z,21.33
2019-02-20T08:14:31.963Z,30.70
2019-02-20T08:17:28.481Z,30.40
2019-02-20T08:20:26.278Z,24.93
2019-02-20T08:23:22.654Z,24.20
2019-02-20T08:26:19.040Z,23.53
2019-02-20T08:29:21.740Z,23.83
2019-02-20T08:32:17.225Z,22.57
2019-02-20T08:35:15.854Z,20.40
2019-02-20T08:38:12.162Z,24.03
2019-02-20T08:41:08.104Z,22.80
2019-02-20T08:44:04.853Z,35.60
2019-02-20T08:47:00.308Z,34.03
2019-02-20T08:49:57.893Z,38.07
2019-02-20T08:52:53.409Z,42.85
2019-02-20T08:55:50.282Z,62.67
2019-02-20T08:58:47.068Z,23.20
2019-02-20T09:01:43.641Z,29.10
2019-02-20T09:04:40.390Z,23.18
2019-02-20T09:07:38.016Z,23.00
2019-02-20T09:10:34.633Z,24.30
2019-02-20T09:13:30.380Z,23.00
2019-02-20T09:16:27.172Z,22.65
2019-02-20T09:19:23.800Z,19.63
2019-02-20T09:22:20.657Z,28.53
2019-02-20T09:25:19.981Z,24.13
2019-02-20T09:28:13.737Z,23.73
2019-02-20T09:31:08.423Z,23.77
2019-02-20T09:34:05.179Z,28.50
2019-02-20T09:37:01.834Z,30.13
2019-02-20T09:39:57.338Z,25.92
2019-02-20T09:42:55.948Z,26.77
2019-02-20T09:45:51.538Z,32.50
2019-02-20T09:48:49.040Z,27.70
2019-02-20T09:51:45.546Z,24.50
2019-02-20T09:54:41.617Z,24.57
2019-02-20T09:57:37.363Z,24.80
2019-02-20T10:00:35.304Z,20.67
2019-02-20T10:03:33.053Z,17.80
2019-02-20T10:06:28.794Z,25.13
2019-02-20T10:09:26.589Z,17.57
2019-02-20T10:12:22.106Z,19.87
2019-02-20T10:15:18.658Z,20.70
2019-02-20T10:18:14.154Z,24.23
2019-02-20T10:21:11.018Z,21.80
2019-02-20T10:24:07.555Z,19.90
2019-02-20T10:27:03.289Z,33.53
2019-02-20T10:30:00.802Z,21.93
2019-02-20T10:33:00.299Z,27.20
2019-02-20T10:36:03.084Z,20.43
2019-02-20T10:39:00.572Z,18.37
2019-02-20T10:42:02.539Z,17.73
2019-02-20T10:44:59.060Z,19.90
2019-02-20T10:47:56.513Z,14.30
2019-02-20T10:50:57.544Z,16.53
2019-02-20T10:53:59.222Z,20.45
2019-02-20T10:57:00.880Z,14.87
2019-02-20T10:59:59.584Z,14.57
2019-02-20T11:03:05.921Z,20.02
2019-02-20T11:06:03.573Z,22.40
2019-02-20T11:09:00.929Z,17.37
2019-02-20T11:11:56.735Z,12.73
2019-02-20T11:14:53.321Z,13.23
2019-02-20T11:17:49.115Z,17.57
2019-02-20T11:20:48.593Z,17.73
2019-02-20T11:23:41.420Z,15.13
2019-02-20T11:26:46.229Z,14.83
2019-02-20T11:29:35.645Z,17.00
2019-02-20T11:32:31.364Z,18.63
2019-02-20T11:35:27.963Z,16.53
2019-02-20T11:38:24.476Z,17.80
2019-02-20T11:41:20.787Z,15.30
2019-02-20T11:44:21.090Z,11.57
2019-02-20T11:47:13.600Z,13.83
2019-02-20T11:50:10.675Z,13.20
2019-02-20T11:53:07.119Z,15.73
2019-02-20T11:56:04.883Z,19.10
2019-02-20T11:59:07.519Z,17.60
2019-02-20T12:02:04.899Z,17.50
2019-02-20T12:05:00.417Z,17.63
2019-02-20T12:07:56.969Z,14.95
2019-02-20T12:10:54.969Z,15.67
2019-02-20T12:13:49.704Z,17.37
2019-02-20T12:16:46.501Z,16.50
2019-02-20T12:19:41.856Z,24.13
2019-02-20T12:22:38.386Z,15.40
2019-02-20T12:25:33.987Z,11.00
2019-02-20T12:28:30.589Z,13.07
2019-02-20T12:31:28.327Z,9.90
2019-02-20T12:34:23.819Z,12.28
2019-02-20T12:37:20.590Z,12.60
2019-02-20T12:40:16.247Z,12.70
2019-02-20T12:43:14.380Z,14.23
2019-02-20T12:46:09.060Z,15.40
2019-02-20T12:49:05.809Z,14.10
2019-02-20T12:52:04.253Z,12.00
2019-02-20T12:55:13.207Z,9.93
2019-02-20T12:58:11.090Z,12.53
2019-02-20T13:01:11.566Z,12.40
2019-02-20T13:04:10.046Z,14.10
2019-02-20T13:07:06.768Z,9.00
2019-02-20T13:10:02.315Z,12.10
2019-02-20T13:12:58.961Z,12.93
2019-02-20T13:15:54.691Z,14.07
2019-02-20T13:18:51.232Z,12.67
2019-02-20T13:21:49.006Z,11.93
2019-02-20T13:24:44.027Z,12.53
2019-02-20T13:27:40.372Z,12.27
2019-02-20T13:30:35.690Z,15.33
2019-02-20T13:33:32.302Z,12.33
2019-02-20T13:36:28.054Z,9.87
2019-02-20T13:39:24.631Z,13.30
2019-02-20T13:42:21.375Z,12.95
2019-02-20T13:45:18.151Z,10.70
2019-02-20T13:48:14.861Z,13.27
2019-02-20T13:51:09.591Z,9.90
2019-02-20T13:54:10.448Z,10.50
2019-02-20T13:57:06.975Z,17.83
2019-02-20T14:00:02.556Z,9.03
2019-02-20T14:03:00.113Z,12.37
2019-02-20T14:05:56.816Z,8.80
2019-02-20T14:08:53.702Z,13.45
2019-02-20T14:11:51.258Z,8.88
2019-02-20T14:14:46.767Z,10.23
2019-02-20T14:17:43.728Z,9.05
2019-02-20T14:20:39.203Z,10.70
2019-02-20T14:23:37.001Z,9.53
2019-02-20T14:26:32.820Z,8.33
2019-02-20T14:29:29.581Z,7.90
2019-02-20T14:32:26.286Z,10.90
2019-02-20T14:35:22.985Z,11.05
2019-02-20T14:38:19.431Z,8.40
2019-02-20T14:41:15.270Z,12.25
2019-02-20T14:44:11.151Z,12.43
2019-02-20T14:47:07.028Z,10.60
2019-02-20T14:50:08.052Z,10.23
2019-02-20T14:53:05.570Z,9.93
2019-02-20T14:56:02.125Z,9.33
2019-02-20T14:58:59.967Z,11.67
2019-02-20T15:01:56.516Z,10.38
2019-02-20T15:04:54.007Z,9.97
2019-02-20T15:07:48.560Z,16.63
2019-02-20T15:10:45.102Z,13.20
2019-02-20T15:13:53.539Z,12.70
2019-02-20T15:16:48.268Z,11.17
2019-02-20T15:19:43.313Z,11.77
2019-02-20T15:22:44.977Z,13.67
2019-02-20T15:25:40.403Z,12.68
2019-02-20T15:28:38.466Z,14.00
2019-02-20T15:31:34.306Z,12.90
2019-02-20T15:34:32.077Z,12.97
2019-02-20T15:37:28.694Z,14.07
2019-02-20T15:40:24.177Z,12.23
2019-02-20T15:43:21.976Z,12.60
2019-02-20T15:46:17.805Z,13.28
2019-02-20T15:49:14.645Z,23.55
2019-02-20T15:52:11.383Z,15.47
2019-02-20T15:55:07.113Z,13.20
2019-02-20T15:58:03.853Z,14.43
2019-02-20T16:01:00.650Z,13.38
2019-02-20T16:03:58.979Z,9.70
2019-02-20T16:06:54.374Z,11.40
2019-02-20T16:09:50.794Z,11.30
2019-02-20T16:12:46.828Z,13.40
2019-02-20T16:15:41.903Z,11.00
2019-02-20T16:18:38.598Z,14.07
2019-02-20T16:21:34.084Z,12.70
2019-02-20T16:24:31.685Z,11.87
2019-02-20T16:27:27.725Z,9.80
2019-02-20T16:30:23.017Z,10.28
2019-02-20T16:33:19.656Z,10.10
2019-02-20T16:36:15.066Z,13.40
2019-02-20T16:39:11.719Z,11.60
2019-02-20T16:42:08.352Z,17.27
2019-02-20T16:45:05.075Z,14.63
2019-02-20T16:48:01.654Z,14.10
2019-02-20T16:50:57.272Z,15.40
2019-02-20T16:53:54.966Z,13.20
2019-02-20T16:56:50.737Z,13.20
2019-02-20T16:59:46.266Z,11.80
2019-02-20T17:02:43.396Z,16.57
2019-02-20T17:05:42.400Z,14.57
2019-02-20T17:08:39.111Z,17.00
2019-02-20T17:11:35.482Z,12.82
2019-02-20T17:14:34.244Z,20.95
2019-02-20T17:17:30.779Z,15.05
2019-02-20T17:20:26.934Z,21.93
2019-02-20T17:23:23.644Z,18.73
2019-02-20T17:26:19.558Z,15.40
2019-02-20T17:29:20.831Z,18.03
2019-02-20T17:32:16.425Z,17.90
2019-02-20T17:35:13.633Z,16.97
2019-02-20T17:38:10.312Z,17.73
2019-02-20T17:41:05.445Z,15.50
2019-02-20T17:44:01.996Z,17.43
2019-02-20T17:46:58.611Z,14.43
2019-02-20T17:49:54.910Z,14.13
2019-02-20T17:52:50.439Z,22.22
2019-02-20T17:55:48.264Z,19.27
2019-02-20T17:58:44.795Z,15.90
2019-02-20T18:01:39.673Z,19.77
2019-02-20T18:04:37.311Z,29.53
2019-02-20T18:07:34.309Z,30.35
2019-02-20T18:10:32.278Z,33.98
2019-02-20T18:13:29.210Z,37.25
2019-02-20T18:16:25.595Z,28.38
2019-02-20T18:19:22.191Z,29.63
2019-02-20T18:22:18.039Z,24.43
2019-02-20T18:25:15.121Z,22.17
2019-02-20T18:28:10.471Z,26.90
2019-02-20T18:31:07.169Z,22.40
2019-02-20T18:34:03.845Z,23.67
2019-02-20T18:36:59.695Z,25.23
2019-02-20T18:39:56.658Z,21.33
2019-02-20T18:42:52.530Z,16.57
2019-02-20T18:45:49.809Z,22.03
2019-02-20T18:48:47.403Z,18.30
2019-02-20T18:51:43.164Z,18.73
2019-02-20T18:54:40.034Z,18.90
2019-02-20T18:57:35.737Z,15.87
2019-02-20T19:00:33.771Z,18.60
2019-02-20T19:03:29.371Z,18.57
2019-02-20T19:06:25.677Z,16.43
2019-02-20T19:09:29.445Z,17.87
2019-02-20T19:12:57.783Z,18.33
2019-02-20T19:16:12.844Z,18.90
2019-02-20T19:19:30.886Z,18.33
2019-02-20T19:22:48.803Z,20.63
2019-02-20T19:26:27.510Z,15.90
2019-02-20T19:29:54.146Z,13.80
2019-02-20T19:33:17.455Z,20.08
2019-02-20T19:36:43.122Z,27.30
2019-02-20T19:39:58.294Z,17.40
2019-02-20T19:43:27.367Z,17.05
2019-02-20T19:46:59.172Z,22.40
2019-02-20T19:50:23.285Z,19.25
2019-02-20T19:53:42.839Z,19.93
2019-02-20T19:57:13.880Z,17.50
2019-02-20T20:00:28.717Z,20.20
2019-02-20T20:04:00.987Z,19.47
2019-02-20T20:07:38.206Z,16.87
2019-02-20T20:11:16.549Z,19.40
2019-02-20T20:14:30.623Z,17.20
2019-02-20T20:17:52.820Z,14.95
2019-02-20T20:21:22.017Z,17.20
2019-02-20T20:24:36.719Z,18.83
2019-02-20T20:27:53.852Z,20.30
2019-02-20T20:31:01.737Z,15.93
2019-02-20T20:34:22.132Z,19.42
2019-02-20T20:37:32.742Z,16.50
2019-02-20T20:41:03.229Z,15.85
2019-02-20T20:44:28.077Z,19.33
2019-02-20T20:47:46.140Z,17.63
2019-02-20T20:50:54.605Z,18.90
2019-02-20T20:54:19.393Z,17.80
2019-02-20T20:57:40.926Z,20.50
2019-02-20T21:01:11.570Z,19.00
2019-02-20T21:04:31.887Z,19.23
2019-02-20T21:07:51.095Z,21.05
2019-02-20T21:11:28.451Z,24.85
2019-02-20T21:14:56.903Z,16.53
2019-02-20T21:18:16.285Z,18.53
2019-02-20T21:21:30.391Z,18.20
2019-02-20T21:24:52.805Z,17.40
2019-02-20T21:28:05.809Z,19.37
2019-02-20T21:31:24.642Z,15.90
2019-02-20T21:34:37.039Z,21.10
2019-02-20T21:38:05.171Z,17.37
2019-02-20T21:41:31.878Z,18.02
2019-02-20T21:44:57.406Z,16.40
2019-02-20T21:48:09.705Z,19.60
2019-02-20T21:51:47.075Z,17.33
2019-02-20T21:55:16.794Z,15.35
2019-02-20T21:58:41.612Z,17.60
2019-02-20T22:02:12.770Z,17.50
2019-02-20T22:05:33.984Z,18.50
2019-02-20T22:08:53.666Z,16.83
2019-02-20T22:12:10.585Z,18.00
2019-02-20T22:15:24.770Z,19.03
2019-02-20T22:18:50.997Z,20.63
2019-02-20T22:22:25.388Z,18.60
2019-02-20T22:25:37.095Z,19.65
2019-02-20T22:29:03.975Z,16.60
2019-02-20T22:32:35.082Z,18.30
2019-02-20T22:35:59.876Z,26.57
2019-02-20T22:39:24.630Z,17.93
2019-02-20T22:42:53.698Z,16.93
2019-02-20T22:46:28.210Z,17.67
2019-02-20T22:49:51.910Z,16.20
2019-02-20T22:52:57.176Z,16.70
2019-02-20T22:56:35.232Z,18.17
2019-02-20T23:00:20.484Z,15.77
2019-02-20T23:03:43.499Z,14.70
2019-02-20T23:07:06.602Z,17.37
2019-02-20T23:10:13.716Z,16.60
2019-02-20T23:13:28.682Z,18.03
2019-02-20T23:16:25.135Z,17.20
2019-02-20T23:19:21.707Z,20.03
2019-02-20T23:22:18.629Z,28.35
2019-02-20T23:25:15.142Z,22.23
2019-02-20T23:28:12.910Z,18.87
2019-02-20T23:31:15.334Z,16.67
2019-02-20T23:34:11.928Z,17.20
2019-02-20T23:37:07.694Z,18.15
2019-02-20T23:40:04.888Z,17.23
2019-02-20T23:43:00.929Z,18.30
2019-02-20T23:45:57.708Z,16.27
2019-02-20T23:48:54.064Z,17.97
2019-02-20T23:51:48.577Z,15.00
2019-02-20T23:54:46.222Z,17.40
2019-02-20T23:57:42.119Z,19.30
